createdAt,value
2023-03-31T00:01:14.090Z,99142.91
2023-03-31T00:03:48.381Z,99141.75
2023-03-31T00:06:20.345Z,99140.88
2023-03-31T00:08:53.948Z,99160.00
2023-03-31T00:11:24.663Z,99161.84
2023-03-31T00:13:55.333Z,99159.69
2023-03-31T00:16:24.026Z,99162.34
2023-03-31T00:18:53.419Z,99161.31
2023-03-31T00:21:37.310Z,99157.66
2023-03-31T00:24:08.292Z,99157.53
2023-03-31T00:26:48.251Z,99140.63
2023-03-31T00:29:17.657Z,99145.06
2023-03-31T00:31:49.765Z,99148.50
2023-03-31T00:34:20.759Z,99137.25
2023-03-31T00:36:50.817Z,99138.13
2023-03-31T00:39:25.456Z,99131.91
2023-03-31T00:41:55.853Z,99132.19
2023-03-31T00:44:27.077Z,99135.84
2023-03-31T00:46:58.331Z,99127.00
2023-03-31T00:49:38.458Z,99121.78
2023-03-31T00:52:14.748Z,99120.72
2023-03-31T00:54:49.170Z,99112.38
2023-03-31T00:57:37.014Z,99100.84
2023-03-31T01:00:14.603Z,99109.44
2023-03-31T01:02:53.576Z,99110.78
2023-03-31T01:05:25.049Z,99122.03
2023-03-31T01:08:03.766Z,99113.06
2023-03-31T01:10:41.953Z,99108.75
2023-03-31T01:13:21.101Z,99096.78
2023-03-31T01:15:49.395Z,99108.50
2023-03-31T01:18:21.848Z,99092.72
2023-03-31T01:21:14.910Z,99093.59
2023-03-31T01:24:15.300Z,99093.84
2023-03-31T01:27:07.030Z,99088.78
2023-03-31T01:30:01.877Z,99093.38
2023-03-31T01:33:02.617Z,99082.41
2023-03-31T01:36:02.247Z,99084.22
2023-03-31T01:39:11.054Z,99090.19
2023-03-31T01:42:01.853Z,99086.91
2023-03-31T01:44:39.417Z,99084.22
2023-03-31T01:47:21.002Z,99086.53
2023-03-31T01:50:02.197Z,99080.34
2023-03-31T01:52:39.155Z,99079.38
2023-03-31T01:55:10.948Z,99074.41
2023-03-31T01:58:03.238Z,99078.28
2023-03-31T02:00:40.473Z,99060.81
2023-03-31T02:03:17.322Z,99068.03
2023-03-31T02:05:50.647Z,99065.69
2023-03-31T02:08:24.148Z,99062.53
2023-03-31T02:10:54.017Z,99051.69
2023-03-31T02:13:29.777Z,99054.84
2023-03-31T02:16:08.519Z,99048.53
2023-03-31T02:18:49.506Z,99050.34
2023-03-31T02:21:22.840Z,99049.97
2023-03-31T02:23:56.817Z,99051.84
2023-03-31T02:26:28.012Z,99039.63
2023-03-31T02:29:12.570Z,99033.09
2023-03-31T02:31:48.174Z,99035.28
2023-03-31T02:34:20.134Z,99026.91
2023-03-31T02:36:51.547Z,99033.13
2023-03-31T02:39:25.593Z,99025.28
2023-03-31T02:41:56.843Z,99028.06
2023-03-31T02:44:30.757Z,99018.88
2023-03-31T02:47:02.544Z,99010.47
2023-03-31T02:49:32.334Z,99018.44
2023-03-31T02:52:26.361Z,99015.56
2023-03-31T02:55:20.516Z,99006.53
2023-03-31T02:58:06.765Z,99010.47
2023-03-31T03:00:48.433Z,99009.69
2023-03-31T03:03:32.824Z,99004.47
2023-03-31T03:06:15.028Z,99013.38
2023-03-31T03:09:08.630Z,99007.41
2023-03-31T03:11:49.268Z,99003.19
2023-03-31T03:14:27.959Z,99009.91
2023-03-31T03:17:16.408Z,99011.50
2023-03-31T03:19:47.882Z,99006.50
2023-03-31T03:22:17.659Z,99001.59
2023-03-31T03:24:52.673Z,99006.34
2023-03-31T03:27:23.972Z,98998.81
2023-03-31T03:29:57.370Z,98989.97
2023-03-31T03:32:40.948Z,98989.09
2023-03-31T03:35:13.240Z,98975.22
2023-03-31T03:37:51.196Z,98978.03
2023-03-31T03:40:20.234Z,98977.50
2023-03-31T03:42:49.535Z,98976.69
2023-03-31T03:45:19.022Z,98981.16
2023-03-31T03:47:53.468Z,98971.09
2023-03-31T03:50:25.063Z,98974.06
2023-03-31T03:52:55.035Z,98985.69
2023-03-31T03:55:27.064Z,98977.06
2023-03-31T03:57:58.113Z,98965.19
2023-03-31T04:00:27.702Z,98973.91
2023-03-31T04:03:00.367Z,98970.50
2023-03-31T04:05:31.242Z,98969.44
2023-03-31T04:07:59.760Z,98968.88
2023-03-31T04:10:29.220Z,98969.09
2023-03-31T04:13:03.258Z,98973.28
2023-03-31T04:15:35.095Z,98954.03
2023-03-31T04:18:06.191Z,98958.75
2023-03-31T04:20:37.809Z,98948.66
2023-03-31T04:23:09.734Z,98948.66
2023-03-31T04:25:46.872Z,98945.94
2023-03-31T04:28:26.730Z,98949.09
2023-03-31T04:30:59.673Z,98939.53
2023-03-31T04:33:29.869Z,98937.75
2023-03-31T04:36:07.241Z,98942.09
2023-03-31T04:38:36.507Z,98937.25
2023-03-31T04:41:10.675Z,98933.56
2023-03-31T04:43:46.546Z,98927.94
2023-03-31T04:46:15.806Z,98926.13
2023-03-31T04:48:54.818Z,98908.56
2023-03-31T04:51:26.162Z,98915.34
2023-03-31T04:53:56.677Z,98905.53
2023-03-31T04:56:28.517Z,98905.16
2023-03-31T04:59:00.460Z,98914.66
2023-03-31T05:01:35.473Z,98907.13
2023-03-31T05:04:11.165Z,98913.06
2023-03-31T05:06:39.735Z,98920.75
2023-03-31T05:09:09.823Z,98923.59
2023-03-31T05:11:39.343Z,98912.53
2023-03-31T05:14:11.098Z,98914.97
2023-03-31T05:16:42.084Z,98911.28
2023-03-31T05:19:27.521Z,98915.81
2023-03-31T05:21:56.677Z,98912.66
2023-03-31T05:24:28.424Z,98901.38
2023-03-31T05:26:58.242Z,98911.16
2023-03-31T05:29:44.119Z,98897.16
2023-03-31T05:32:13.338Z,98887.81
2023-03-31T05:34:44.409Z,98898.28
2023-03-31T05:37:12.908Z,98893.84
2023-03-31T05:39:42.101Z,98902.53
2023-03-31T05:42:10.617Z,98901.44
2023-03-31T05:44:48.534Z,98891.88
2023-03-31T05:47:27.813Z,98886.66
2023-03-31T05:50:14.886Z,98882.03
2023-03-31T05:52:47.086Z,98880.09
2023-03-31T05:55:18.945Z,98874.63
2023-03-31T05:57:57.647Z,98870.06
2023-03-31T06:00:28.009Z,98861.06
2023-03-31T06:03:00.333Z,98861.09
2023-03-31T06:05:32.428Z,98857.00
2023-03-31T06:08:00.572Z,98845.31
2023-03-31T06:10:29.944Z,98832.44
2023-03-31T06:12:59.029Z,98841.88
2023-03-31T06:15:30.644Z,98840.19
2023-03-31T06:18:01.935Z,98837.84
2023-03-31T06:20:39.820Z,98836.91
2023-03-31T06:23:11.291Z,98827.06
2023-03-31T06:25:50.936Z,98830.25
2023-03-31T06:28:20.786Z,98830.06
2023-03-31T06:30:52.893Z,98829.75
2023-03-31T06:33:24.255Z,98831.22
2023-03-31T06:35:58.326Z,98823.03
2023-03-31T06:38:27.971Z,98814.03
2023-03-31T06:40:59.641Z,98809.13
2023-03-31T06:43:29.558Z,98812.75
2023-03-31T06:45:58.702Z,98805.41
2023-03-31T06:48:29.625Z,98802.19
2023-03-31T06:51:20.914Z,98816.16
2023-03-31T06:53:49.637Z,98799.69
2023-03-31T06:56:24.789Z,98802.34
2023-03-31T06:58:57.009Z,98795.50
2023-03-31T07:01:26.608Z,98795.56
2023-03-31T07:03:55.774Z,98786.53
2023-03-31T07:06:36.905Z,98780.19
2023-03-31T07:09:07.844Z,98778.63
2023-03-31T07:11:37.179Z,98768.22
2023-03-31T07:14:06.998Z,98763.47
2023-03-31T07:16:36.739Z,98766.06
2023-03-31T07:19:08.136Z,98762.78
2023-03-31T07:21:38.817Z,98763.06
2023-03-31T07:24:07.162Z,98765.56
2023-03-31T07:26:36.423Z,98758.31
2023-03-31T07:29:07.944Z,98753.88
2023-03-31T07:31:39.683Z,98757.97
2023-03-31T07:34:09.424Z,98746.38
2023-03-31T07:36:46.013Z,98741.88
2023-03-31T07:39:14.945Z,98728.75
2023-03-31T07:41:44.304Z,98731.06
2023-03-31T07:44:28.544Z,98715.81
2023-03-31T07:47:07.113Z,98715.28
2023-03-31T07:49:38.848Z,98707.22
2023-03-31T07:52:22.746Z,98714.72
2023-03-31T07:54:59.062Z,98707.13
2023-03-31T07:57:28.480Z,98702.13
2023-03-31T07:59:57.702Z,98700.47
2023-03-31T08:02:27.146Z,98694.47
2023-03-31T08:04:58.983Z,98694.03
2023-03-31T08:07:37.941Z,98690.13
2023-03-31T08:10:11.973Z,98682.34
2023-03-31T08:12:44.051Z,98678.00
2023-03-31T08:15:14.033Z,98686.31
2023-03-31T08:17:44.766Z,98672.25
2023-03-31T08:20:16.806Z,98677.88
2023-03-31T08:22:53.724Z,98670.72
2023-03-31T08:25:28.782Z,98659.56
2023-03-31T08:27:59.842Z,98658.25
2023-03-31T08:30:29.072Z,98648.81
2023-03-31T08:32:57.885Z,98651.50
2023-03-31T08:35:29.747Z,98643.88
2023-03-31T08:38:05.830Z,98646.16
2023-03-31T08:40:42.429Z,98632.72
2023-03-31T08:43:15.890Z,98635.47
2023-03-31T08:45:48.349Z,98633.63
2023-03-31T08:48:25.964Z,98623.16
2023-03-31T08:51:21.236Z,98615.41
2023-03-31T08:53:56.688Z,98608.19
2023-03-31T08:56:33.239Z,98590.53
2023-03-31T08:59:04.138Z,98592.38
2023-03-31T09:01:55.742Z,98591.16
2023-03-31T09:04:53.476Z,98585.78
2023-03-31T09:07:33.259Z,98583.56
2023-03-31T09:10:24.012Z,98572.50
2023-03-31T09:12:57.782Z,98577.69
2023-03-31T09:15:29.851Z,98572.50
2023-03-31T09:18:04.569Z,98578.97
2023-03-31T09:20:38.422Z,98573.34
2023-03-31T09:23:23.368Z,98564.66
2023-03-31T09:26:03.061Z,98555.25
2023-03-31T09:28:38.959Z,98559.53
2023-03-31T09:31:20.170Z,98555.44
2023-03-31T09:33:51.556Z,98548.94
2023-03-31T09:36:22.925Z,98546.53
2023-03-31T09:38:53.416Z,98548.63
2023-03-31T09:41:37.885Z,98544.16
2023-03-31T09:44:09.477Z,98540.38
2023-03-31T09:46:40.361Z,98526.16
2023-03-31T09:49:15.310Z,98521.09
2023-03-31T09:51:46.771Z,98517.59
2023-03-31T09:54:21.337Z,98512.16
2023-03-31T09:56:54.528Z,98501.22
2023-03-31T09:59:25.628Z,98504.97
2023-03-31T10:02:03.093Z,98499.38
2023-03-31T10:04:33.876Z,98497.31
2023-03-31T10:07:16.638Z,98485.97
2023-03-31T10:09:48.421Z,98482.44
2023-03-31T10:12:27.619Z,98474.13
2023-03-31T10:15:14.472Z,98489.47
2023-03-31T10:17:55.406Z,98476.22
2023-03-31T10:20:36.592Z,98475.81
2023-03-31T10:23:15.747Z,98472.09
2023-03-31T10:25:53.659Z,98473.34
2023-03-31T10:28:28.304Z,98458.84
2023-03-31T10:31:04.111Z,98455.19
2023-03-31T10:33:35.831Z,98453.19
2023-03-31T10:36:27.517Z,98449.53
2023-03-31T10:38:58.655Z,98439.84
2023-03-31T10:41:28.816Z,98449.19
2023-03-31T10:44:05.775Z,98459.41
2023-03-31T10:46:55.888Z,98448.41
2023-03-31T10:49:27.827Z,98439.50
2023-03-31T10:51:59.637Z,98453.63
2023-03-31T10:54:29.402Z,98467.91
2023-03-31T10:57:06.505Z,98472.09
2023-03-31T11:00:00.686Z,98487.38
2023-03-31T11:02:50.302Z,98476.75
2023-03-31T11:05:29.503Z,98463.81
2023-03-31T11:08:12.126Z,98455.22
2023-03-31T11:11:04.024Z,98464.78
2023-03-31T11:13:38.227Z,98453.41
2023-03-31T11:16:28.399Z,98474.44
2023-03-31T11:19:27.402Z,98472.50
2023-03-31T11:22:05.381Z,98451.38
2023-03-31T11:24:47.319Z,98429.94
2023-03-31T11:27:36.913Z,98407.59
2023-03-31T11:30:12.299Z,98409.59
2023-03-31T11:33:05.662Z,98390.81
2023-03-31T11:35:48.440Z,98372.22
2023-03-31T11:38:38.293Z,98331.81
2023-03-31T11:41:24.917Z,98324.13
2023-03-31T11:43:58.842Z,98328.25
2023-03-31T11:46:33.710Z,98338.06
2023-03-31T11:49:21.103Z,98332.22
2023-03-31T11:51:54.241Z,98317.50
2023-03-31T11:54:28.922Z,98296.13
2023-03-31T11:56:57.917Z,98281.34
2023-03-31T11:59:30.134Z,98263.44
2023-03-31T12:02:06.001Z,98251.56
2023-03-31T12:04:44.049Z,98240.41
2023-03-31T12:07:26.496Z,98249.34
2023-03-31T12:10:05.854Z,98233.50
2023-03-31T12:12:39.259Z,98224.50
2023-03-31T12:15:18.960Z,98228.78
2023-03-31T12:17:56.564Z,98218.09
2023-03-31T12:20:34.882Z,98225.22
2023-03-31T12:23:12.612Z,98219.50
2023-03-31T12:25:51.904Z,98238.88
2023-03-31T12:28:23.378Z,98225.72
2023-03-31T12:30:54.882Z,98235.50
2023-03-31T12:33:27.168Z,98243.84
2023-03-31T12:36:20.855Z,98251.69
2023-03-31T12:39:01.804Z,98226.06
2023-03-31T12:41:39.023Z,98212.59
2023-03-31T12:44:25.425Z,98192.00
2023-03-31T12:47:36.028Z,98189.75
2023-03-31T12:50:47.244Z,98201.16
2023-03-31T12:53:35.456Z,98198.47
2023-03-31T12:56:07.468Z,98198.34
2023-03-31T12:59:01.847Z,98209.44
2023-03-31T13:01:29.980Z,98193.94
2023-03-31T13:04:20.720Z,98186.44
2023-03-31T13:06:59.699Z,98191.44
2023-03-31T13:10:05.078Z,98194.72
2023-03-31T13:12:36.075Z,98188.41
2023-03-31T13:15:06.423Z,98173.25
2023-03-31T13:17:39.730Z,98167.00
2023-03-31T13:20:36.146Z,98175.47
2023-03-31T13:23:08.845Z,98173.25
2023-03-31T13:25:46.365Z,98146.53
2023-03-31T13:28:46.762Z,98139.66
2023-03-31T13:31:17.656Z,98136.50
2023-03-31T13:34:00.772Z,98130.25
2023-03-31T13:36:57.534Z,98126.22
2023-03-31T13:39:38.051Z,98115.59
2023-03-31T13:42:31.622Z,98119.59
2023-03-31T13:45:26.709Z,98128.88
2023-03-31T13:48:01.602Z,98114.44
2023-03-31T13:50:57.545Z,98113.09
2023-03-31T13:53:41.014Z,98118.28
2023-03-31T13:56:25.569Z,98112.25
2023-03-31T13:59:14.666Z,98107.31
2023-03-31T14:02:19.064Z,98111.47
2023-03-31T14:05:21.985Z,98107.25
2023-03-31T14:07:55.829Z,98098.19
2023-03-31T14:10:30.047Z,98086.66
2023-03-31T14:13:18.402Z,98104.72
2023-03-31T14:15:57.904Z,98098.56
2023-03-31T14:18:29.910Z,98099.47
2023-03-31T14:21:11.531Z,98099.78
2023-03-31T14:23:55.403Z,98111.03
2023-03-31T14:26:46.963Z,98104.84
2023-03-31T14:29:23.413Z,98104.41
2023-03-31T14:31:58.575Z,98118.03
2023-03-31T14:34:59.679Z,98137.59
2023-03-31T14:37:30.968Z,98101.88
2023-03-31T14:40:00.006Z,98107.19
2023-03-31T14:42:40.455Z,98091.66
2023-03-31T14:45:19.489Z,98130.25
2023-03-31T14:48:08.512Z,98096.91
2023-03-31T14:50:37.782Z,98102.75
2023-03-31T14:53:06.533Z,98118.38
2023-03-31T14:58:08.449Z,98120.03
2023-03-31T15:00:40.877Z,98117.19
2023-03-31T15:03:19.669Z,98113.22
2023-03-31T15:05:59.691Z,98120.13
2023-03-31T15:08:37.241Z,98145.72
2023-03-31T15:13:47.011Z,98160.81
2023-03-31T15:16:42.716Z,98168.78
2023-03-31T15:19:36.700Z,98142.56
2023-03-31T15:22:17.660Z,98186.25
2023-03-31T15:24:47.143Z,98198.72
2023-03-31T15:27:23.474Z,98236.44
2023-03-31T15:30:08.529Z,98248.47
2023-03-31T15:32:42.599Z,98336.16
2023-03-31T15:35:23.570Z,98269.06
2023-03-31T15:37:53.845Z,98270.59
2023-03-31T15:40:27.164Z,98239.13
2023-03-31T15:43:13.330Z,98248.34
2023-03-31T15:45:52.990Z,98243.09
2023-03-31T15:48:25.338Z,98186.13
2023-03-31T15:51:04.195Z,98171.75
2023-03-31T15:53:41.276Z,98132.81
2023-03-31T15:56:12.017Z,98129.31
2023-03-31T15:59:07.825Z,98161.78
2023-03-31T16:01:50.714Z,98187.81
2023-03-31T16:04:20.408Z,98192.78
2023-03-31T16:06:55.204Z,98180.16
2023-03-31T16:09:27.849Z,98173.78
2023-03-31T16:11:58.615Z,98162.31
2023-03-31T16:14:31.658Z,98159.41
2023-03-31T16:17:04.002Z,98160.78
2023-03-31T16:19:41.556Z,98140.38
2023-03-31T16:22:21.885Z,98133.34
2023-03-31T16:24:54.357Z,98129.06
2023-03-31T16:27:26.870Z,98124.09
2023-03-31T16:30:08.660Z,98103.53
2023-03-31T16:32:40.551Z,98095.72
2023-03-31T16:35:16.543Z,98089.09
2023-03-31T16:37:47.335Z,98087.22
2023-03-31T16:40:28.730Z,98082.38
2023-03-31T16:43:20.192Z,98088.72
2023-03-31T16:46:00.579Z,98087.94
2023-03-31T16:48:38.674Z,98077.59
2023-03-31T16:51:16.121Z,98091.31
2023-03-31T16:53:52.734Z,98095.91
2023-03-31T16:56:23.950Z,98088.38
2023-03-31T16:58:54.162Z,98099.50
2023-03-31T17:01:23.885Z,98092.81
2023-03-31T17:03:53.198Z,98104.72
2023-03-31T17:06:24.387Z,98100.97
2023-03-31T17:08:58.732Z,98099.03
2023-03-31T17:11:33.719Z,98103.75
2023-03-31T17:14:10.547Z,98107.81
2023-03-31T17:19:34.216Z,98111.97
2023-03-31T17:22:13.024Z,98107.41
2023-03-31T17:24:50.663Z,98118.53
2023-03-31T17:27:32.331Z,98117.72
2023-03-31T17:32:33.918Z,98108.69
2023-03-31T17:35:05.368Z,98102.25
2023-03-31T17:37:48.570Z,98111.53
2023-03-31T17:40:19.745Z,98118.72
2023-03-31T17:42:55.305Z,98113.66
2023-03-31T17:45:25.482Z,98125.31
2023-03-31T17:47:58.463Z,98121.41
2023-03-31T17:50:35.015Z,98128.66
2023-03-31T17:53:10.391Z,98122.19
2023-03-31T17:55:46.435Z,98129.31
2023-03-31T17:58:23.411Z,98123.63
2023-03-31T18:01:10.340Z,98112.50
2023-03-31T18:03:48.851Z,98121.06
2023-03-31T18:06:20.315Z,98149.06
2023-03-31T18:08:54.664Z,98108.50
2023-03-31T18:11:35.486Z,98124.09
2023-03-31T18:14:11.185Z,98109.69
2023-03-31T18:16:40.667Z,98101.84
2023-03-31T18:19:25.597Z,98113.66
2023-03-31T18:21:57.376Z,98122.47
2023-03-31T18:24:35.047Z,98114.63
2023-03-31T18:27:24.599Z,98121.06
2023-03-31T18:29:59.714Z,98134.94
2023-03-31T18:32:34.204Z,98135.22
2023-03-31T18:35:10.022Z,98153.66
2023-03-31T18:37:42.666Z,98140.69
2023-03-31T18:40:19.450Z,98140.84
2023-03-31T18:42:54.267Z,98148.63
2023-03-31T18:45:34.275Z,98146.44
2023-03-31T18:48:04.841Z,98141.06
2023-03-31T18:50:37.876Z,98158.84
2023-03-31T18:53:09.106Z,98158.63
2023-03-31T18:55:45.650Z,98152.19
2023-03-31T18:58:24.482Z,98146.09
2023-03-31T19:01:01.357Z,98152.44
2023-03-31T19:03:34.397Z,98166.38
2023-03-31T19:06:20.487Z,98150.06
2023-03-31T19:08:52.509Z,98143.06
2023-03-31T19:11:26.264Z,98152.53
2023-03-31T19:14:03.779Z,98172.44
2023-03-31T19:16:46.371Z,98167.19
2023-03-31T19:19:24.399Z,98167.38
2023-03-31T19:21:55.010Z,98153.69
2023-03-31T19:24:33.921Z,98160.00
2023-03-31T19:27:04.765Z,98163.72
2023-03-31T19:29:38.842Z,98161.69
2023-03-31T19:32:19.054Z,98167.16
2023-03-31T19:34:50.035Z,98162.31
2023-03-31T19:37:27.816Z,98153.75
2023-03-31T19:40:00.265Z,98165.06
2023-03-31T19:42:34.105Z,98166.78
2023-03-31T19:45:05.765Z,98166.13
2023-03-31T19:47:36.923Z,98167.84
2023-03-31T19:50:15.865Z,98168.16
2023-03-31T19:52:50.919Z,98168.63
2023-03-31T19:55:29.590Z,98169.00
2023-03-31T19:58:06.856Z,98175.09
2023-03-31T20:00:47.667Z,98170.03
2023-03-31T20:03:19.368Z,98175.38
2023-03-31T20:05:50.153Z,98178.72
2023-03-31T20:08:28.581Z,98175.00
2023-03-31T20:11:11.536Z,98189.25
2023-03-31T20:13:45.888Z,98198.28
2023-03-31T20:16:18.626Z,98194.25
2023-03-31T20:18:54.538Z,98196.44
2023-03-31T20:21:28.124Z,98191.44
2023-03-31T20:23:59.238Z,98193.19
2023-03-31T20:26:32.806Z,98191.34
2023-03-31T20:29:11.894Z,98177.38
2023-03-31T20:31:53.414Z,98183.41
2023-03-31T20:34:33.102Z,98179.78
2023-03-31T20:37:04.548Z,98200.22
2023-03-31T20:39:35.382Z,98184.09
2023-03-31T20:42:14.477Z,98184.81
2023-03-31T20:44:46.671Z,98198.91
2023-03-31T20:47:17.970Z,98183.25
2023-03-31T20:49:52.352Z,98196.94
2023-03-31T20:52:21.242Z,98181.16
2023-03-31T20:54:52.728Z,98189.44
2023-03-31T20:57:30.394Z,98202.50
2023-03-31T21:00:02.736Z,98178.66
2023-03-31T21:02:44.193Z,98178.75
2023-03-31T21:05:17.991Z,98158.59
2023-03-31T21:07:49.453Z,98162.28
2023-03-31T21:10:21.042Z,98163.16
2023-03-31T21:12:50.615Z,98164.06
2023-03-31T21:15:18.807Z,98155.28
2023-03-31T21:17:54.441Z,98143.94
2023-03-31T21:20:25.167Z,98157.19
2023-03-31T21:22:57.324Z,98141.38
2023-03-31T21:25:26.102Z,98140.75
2023-03-31T21:28:09.182Z,98132.25
2023-03-31T21:30:42.071Z,98128.25
2023-03-31T21:33:27.409Z,98125.06
2023-03-31T21:36:09.662Z,98119.34
2023-03-31T21:38:38.942Z,98139.72
2023-03-31T21:41:10.994Z,98125.25
2023-03-31T21:43:53.131Z,98113.63
2023-03-31T21:46:24.254Z,98118.59
2023-03-31T21:49:16.172Z,98110.00
2023-03-31T21:51:49.198Z,98129.78
2023-03-31T21:54:18.711Z,98124.97
2023-03-31T21:56:46.822Z,98118.22
2023-03-31T21:59:18.026Z,98115.34
2023-03-31T22:01:52.215Z,98132.41
2023-03-31T22:04:30.767Z,98111.06
2023-03-31T22:07:00.716Z,98108.00
2023-03-31T22:09:30.479Z,98128.59
2023-03-31T22:12:05.091Z,98112.59
2023-03-31T22:14:34.790Z,98094.69
2023-03-31T22:17:05.996Z,98101.63
2023-03-31T22:19:37.441Z,98106.34
2023-03-31T22:22:08.295Z,98086.59
2023-03-31T22:24:37.723Z,98109.91
2023-03-31T22:27:15.798Z,98107.44
2023-03-31T22:29:47.538Z,98101.31
2023-03-31T22:32:24.896Z,98110.38
2023-03-31T22:34:55.436Z,98098.03
2023-03-31T22:37:25.675Z,98085.44
2023-03-31T22:39:56.496Z,98089.31
2023-03-31T22:42:28.478Z,98092.75
2023-03-31T22:44:57.939Z,98082.84
2023-03-31T22:47:29.740Z,98076.66
2023-03-31T22:50:09.405Z,98075.25
2023-03-31T22:52:44.034Z,98065.06
2023-03-31T22:55:15.988Z,98074.44
2023-03-31T22:57:46.038Z,98048.78
2023-03-31T23:00:17.146Z,98033.03
2023-03-31T23:02:48.082Z,98042.88
2023-03-31T23:05:24.424Z,98039.66
2023-03-31T23:07:56.318Z,98044.38
2023-03-31T23:10:25.685Z,98063.19
2023-03-31T23:12:56.162Z,98043.34
2023-03-31T23:15:28.418Z,98060.50
2023-03-31T23:18:00.685Z,98021.38
2023-03-31T23:20:31.333Z,98032.06
2023-03-31T23:23:03.103Z,98071.94
2023-03-31T23:25:33.443Z,98031.06
2023-03-31T23:28:04.485Z,98039.88
2023-03-31T23:30:37.374Z,98051.31
2023-03-31T23:33:07.079Z,98045.53
2023-03-31T23:35:37.946Z,98028.84
2023-03-31T23:38:07.858Z,98032.97
2023-03-31T23:40:46.329Z,98052.06
2023-03-31T23:43:16.441Z,98031.38
2023-03-31T23:45:45.235Z,98046.44
2023-03-31T23:48:17.440Z,98043.56
2023-03-31T23:50:54.844Z,98070.22
2023-03-31T23:53:24.211Z,98060.81
2023-03-31T23:55:56.784Z,98070.28
2023-03-31T23:58:30.485Z,98066.44
